createdAt,value
2023-02-04T00:00:34.772Z,64.72
2023-02-04T00:03:40.559Z,62.81
2023-02-04T00:06:47.124Z,50.44
2023-02-04T00:09:52.999Z,46.44
2023-02-04T00:12:59.742Z,44.10
2023-02-04T00:16:09.599Z,46.44
2023-02-04T00:19:17.342Z,40.46
2023-02-04T00:22:23.321Z,36.36
2023-02-04T00:25:30.141Z,37.36
2023-02-04T00:28:36.107Z,35.66
2023-02-04T00:31:47.409Z,33.68
2023-02-04T00:34:53.942Z,28.19
2023-02-04T00:38:00.494Z,28.49
2023-02-04T00:41:07.180Z,27.34
2023-02-04T00:44:14.466Z,27.74
2023-02-04T00:47:23.070Z,37.13
2023-02-04T00:50:30.023Z,38.70
2023-02-04T00:53:35.993Z,39.83
2023-02-04T00:56:42.623Z,36.98
2023-02-04T00:59:48.653Z,28.18
2023-02-04T01:02:57.902Z,27.37
2023-02-04T01:06:03.714Z,26.05
2023-02-04T01:09:10.463Z,27.35
2023-02-04T01:12:16.336Z,27.12
2023-02-04T01:15:23.256Z,31.26
2023-02-04T01:18:31.758Z,31.26
2023-02-04T01:21:40.773Z,32.56
2023-02-04T01:24:46.837Z,37.63
2023-02-04T01:28:11.894Z,35.28
2023-02-04T01:31:19.161Z,35.97
2023-02-04T01:34:31.752Z,29.05
2023-02-04T01:37:37.498Z,27.50
2023-02-04T01:40:46.077Z,24.21
2023-02-04T01:43:53.170Z,21.11
2023-02-04T01:47:00.207Z,19.79
2023-02-04T01:50:10.704Z,16.53
2023-02-04T01:53:23.605Z,17.51
2023-02-04T01:56:33.393Z,15.86
2023-02-04T01:59:42.624Z,16.70
2023-02-04T02:02:53.239Z,13.72
2023-02-04T02:06:02.869Z,12.30
2023-02-04T02:09:09.437Z,10.84
2023-02-04T02:12:16.075Z,11.46
2023-02-04T02:15:22.700Z,11.12
2023-02-04T02:18:30.104Z,10.40
2023-02-04T02:21:48.327Z,10.88
2023-02-04T02:24:58.552Z,12.84
2023-02-04T02:28:10.545Z,13.85
2023-02-04T02:31:18.297Z,12.10
2023-02-04T02:34:24.312Z,13.58
2023-02-04T02:37:31.175Z,12.98
2023-02-04T02:40:40.397Z,15.22
2023-02-04T02:43:47.516Z,15.48
2023-02-04T02:46:53.990Z,17.15
2023-02-04T02:50:00.682Z,16.97
2023-02-04T02:53:07.384Z,15.08
2023-02-04T02:56:16.828Z,18.12
2023-02-04T02:59:23.459Z,16.95
2023-02-04T03:02:30.329Z,18.60
2023-02-04T03:05:44.075Z,16.00
2023-02-04T03:08:58.040Z,17.27
2023-02-04T03:12:08.806Z,16.36
2023-02-04T03:15:17.192Z,21.30
2023-02-04T03:18:26.212Z,29.77
2023-02-04T03:21:34.602Z,25.17
2023-02-04T03:24:42.812Z,20.66
2023-02-04T03:27:54.198Z,28.10
2023-02-04T03:31:00.716Z,22.10
2023-02-04T03:34:08.648Z,18.57
2023-02-04T03:37:14.480Z,17.38
2023-02-04T03:40:21.455Z,18.77
2023-02-04T03:43:30.132Z,15.56
2023-02-04T03:46:37.106Z,18.50
2023-02-04T03:49:42.875Z,14.21
2023-02-04T03:52:51.643Z,14.72
2023-02-04T03:55:57.547Z,16.80
2023-02-04T03:59:06.822Z,18.39
2023-02-04T04:02:12.744Z,23.22
2023-02-04T04:05:20.087Z,25.46
2023-02-04T04:08:25.842Z,24.79
2023-02-04T04:11:32.358Z,30.34
2023-02-04T04:14:40.873Z,33.24
2023-02-04T04:17:47.868Z,41.69
2023-02-04T04:20:53.582Z,45.19
2023-02-04T04:24:01.250Z,50.70
2023-02-04T04:27:07.452Z,61.25
2023-02-04T04:30:17.200Z,64.22
2023-02-04T04:33:23.132Z,70.63
2023-02-04T04:36:29.677Z,71.35
2023-02-04T04:39:35.627Z,73.81
2023-02-04T04:42:42.272Z,109.33
2023-02-04T04:45:50.644Z,76.93
2023-02-04T04:48:57.389Z,68.70
2023-02-04T04:52:04.701Z,69.13
2023-02-04T04:55:12.507Z,69.00
2023-02-04T04:58:18.349Z,73.41
2023-02-04T05:01:27.602Z,72.04
2023-02-04T05:04:33.522Z,67.17
2023-02-04T05:07:40.175Z,69.54
2023-02-04T05:10:47.559Z,63.28
2023-02-04T05:13:54.449Z,61.22
2023-02-04T05:17:02.862Z,64.95
2023-02-04T05:20:11.261Z,63.00
2023-02-04T05:23:17.268Z,61.86
2023-02-04T05:26:30.268Z,61.75
2023-02-04T05:29:36.695Z,55.45
2023-02-04T05:32:46.093Z,53.51
2023-02-04T05:35:51.836Z,50.95
2023-02-04T05:38:58.496Z,71.01
2023-02-04T05:42:04.273Z,46.09
2023-02-04T05:45:16.585Z,44.89
2023-02-04T05:48:25.028Z,46.71
2023-02-04T05:51:31.644Z,48.98
2023-02-04T05:54:37.496Z,45.00
2023-02-04T05:57:44.344Z,50.53
2023-02-04T06:00:50.146Z,50.05
2023-02-04T06:03:59.406Z,49.69
2023-02-04T06:07:05.291Z,52.95
2023-02-04T06:10:14.526Z,51.14
2023-02-04T06:13:20.643Z,52.17
2023-02-04T06:16:27.382Z,53.23
2023-02-04T06:19:35.783Z,54.40
2023-02-04T06:22:42.399Z,59.64
2023-02-04T06:25:49.024Z,77.30
2023-02-04T06:28:55.581Z,64.30
2023-02-04T06:32:01.414Z,63.94
2023-02-04T06:35:13.300Z,64.64
2023-02-04T06:38:19.368Z,64.86
2023-02-04T06:41:26.028Z,65.30
2023-02-04T06:44:31.813Z,72.09
2023-02-04T06:47:38.831Z,67.23
2023-02-04T06:50:47.541Z,70.44
2023-02-04T06:53:55.438Z,66.87
2023-02-04T06:57:06.836Z,71.23
2023-02-04T07:00:16.513Z,73.32
2023-02-04T07:03:37.140Z,74.92
2023-02-04T07:07:00.483Z,68.39
2023-02-04T07:10:22.076Z,68.60
2023-02-04T07:13:42.832Z,76.93
2023-02-04T07:17:03.458Z,73.38
2023-02-04T07:20:24.205Z,78.40
2023-02-04T07:23:50.205Z,73.21
2023-02-04T07:27:11.106Z,72.41
2023-02-04T07:30:32.239Z,74.50
2023-02-04T07:33:53.264Z,74.71
2023-02-04T07:37:14.492Z,80.92
2023-02-04T07:40:37.843Z,79.16
2023-02-04T07:43:58.645Z,80.25
2023-02-04T07:47:19.383Z,74.68
2023-02-04T07:50:43.040Z,72.31
2023-02-04T07:54:03.836Z,74.16
2023-02-04T07:57:27.131Z,75.53
2023-02-04T08:00:47.948Z,81.80
2023-02-04T08:04:11.327Z,76.02
2023-02-04T08:07:32.060Z,80.74
2023-02-04T08:10:52.755Z,86.27
2023-02-04T08:14:16.232Z,85.24
2023-02-04T08:17:37.090Z,117.81
2023-02-04T08:20:59.378Z,108.03
2023-02-04T08:24:20.661Z,91.44
2023-02-04T08:27:44.695Z,94.02
2023-02-04T08:31:12.636Z,91.95
2023-02-04T08:34:33.566Z,103.99
2023-02-04T08:37:54.254Z,96.14
2023-02-04T08:41:15.011Z,100.18
2023-02-04T08:44:35.727Z,93.51
2023-02-04T08:47:59.257Z,96.38
2023-02-04T08:51:20.066Z,98.70
2023-02-04T08:54:40.695Z,92.11
2023-02-04T08:58:03.090Z,95.38
2023-02-04T09:01:24.187Z,98.42
2023-02-04T09:04:47.540Z,99.19
2023-02-04T09:08:08.451Z,102.07
2023-02-04T09:11:29.145Z,94.01
2023-02-04T09:14:52.681Z,105.81
2023-02-04T09:18:16.843Z,115.35
2023-02-04T09:21:40.248Z,116.54
2023-02-04T09:25:01.027Z,116.03
2023-02-04T09:28:22.441Z,329.96
2023-02-04T09:31:46.600Z,203.37
2023-02-04T09:35:10.912Z,266.29
2023-02-04T09:38:34.459Z,268.36
2023-02-04T09:41:56.971Z,266.93
2023-02-04T09:45:24.567Z,437.29
2023-02-04T09:48:48.326Z,308.99
2023-02-04T09:52:18.615Z,412.17
2023-02-04T09:55:51.012Z,1244.59
2023-02-04T09:59:17.499Z,484.88
2023-02-04T10:02:38.903Z,407.30
2023-02-04T10:06:00.232Z,649.30
2023-02-04T10:09:22.035Z,454.10
2023-02-04T10:12:45.525Z,279.27
2023-02-04T10:16:17.221Z,202.09
2023-02-04T10:19:38.103Z,178.52
2023-02-04T10:23:01.856Z,130.49
2023-02-04T10:26:25.837Z,502.56
2023-02-04T10:30:02.998Z,93.24
2023-02-04T10:33:27.618Z,142.72
2023-02-04T10:36:54.432Z,186.66
2023-02-04T10:40:32.375Z,129.85
2023-02-04T10:44:06.669Z,138.10
2023-02-04T10:47:33.065Z,187.98
2023-02-04T10:50:53.779Z,187.15
2023-02-04T10:54:34.053Z,151.65
2023-02-04T10:57:56.417Z,192.36
2023-02-04T11:01:20.262Z,202.68
2023-02-04T11:04:43.757Z,98.99
2023-02-04T11:08:27.312Z,325.79
2023-02-04T11:11:53.907Z,164.63
2023-02-04T11:15:44.864Z,87.42
2023-02-04T11:19:09.028Z,98.16
2023-02-04T11:22:46.473Z,67.12
2023-02-04T11:26:19.344Z,160.90
2023-02-04T11:29:43.137Z,107.93
2023-02-04T11:33:09.704Z,143.28
2023-02-04T11:36:30.378Z,244.79
2023-02-04T11:39:54.522Z,133.95
2023-02-04T11:43:21.724Z,71.10
2023-02-04T11:46:43.020Z,103.18
2023-02-04T11:50:14.327Z,96.12
2023-02-04T11:53:37.464Z,80.41
2023-02-04T11:57:04.105Z,113.47
2023-02-04T12:00:28.601Z,97.00
2023-02-04T12:03:52.655Z,87.87
2023-02-04T12:07:24.708Z,114.69
2023-02-04T12:10:53.271Z,130.43
2023-02-04T12:14:23.676Z,79.42
2023-02-04T12:18:02.838Z,134.56
2023-02-04T12:21:24.714Z,89.98
2023-02-04T12:24:45.571Z,59.55
2023-02-04T12:28:06.481Z,122.12
2023-02-04T12:31:33.401Z,118.87
2023-02-04T12:34:54.140Z,93.54
2023-02-04T12:38:15.365Z,57.06
2023-02-04T12:41:36.117Z,61.87
2023-02-04T12:44:59.689Z,81.47
2023-02-04T12:48:23.261Z,85.50
2023-02-04T12:51:44.007Z,97.49
2023-02-04T12:55:05.212Z,96.43
2023-02-04T12:58:25.863Z,74.64
2023-02-04T13:01:46.636Z,105.43
2023-02-04T13:05:12.462Z,81.72
2023-02-04T13:08:33.328Z,70.93
2023-02-04T13:11:54.001Z,76.85
2023-02-04T13:15:15.273Z,72.62
2023-02-04T13:18:40.131Z,79.53
2023-02-04T13:22:06.505Z,76.33
2023-02-04T13:25:27.183Z,65.94
2023-02-04T13:28:51.056Z,66.59
2023-02-04T13:32:11.872Z,56.27
2023-02-04T13:35:33.099Z,58.97
2023-02-04T13:38:56.836Z,51.62
2023-02-04T13:42:17.507Z,71.54
2023-02-04T13:45:38.524Z,102.45
2023-02-04T13:48:59.287Z,224.95
2023-02-04T13:52:21.295Z,362.88
2023-02-04T13:55:44.605Z,365.45
2023-02-04T13:59:05.255Z,308.13
2023-02-04T14:02:26.124Z,154.48
2023-02-04T14:05:46.955Z,72.95
2023-02-04T14:09:08.468Z,82.46
2023-02-04T14:12:31.789Z,82.61
2023-02-04T14:15:57.196Z,64.57
2023-02-04T14:19:18.035Z,79.62
2023-02-04T14:22:38.763Z,72.50
2023-02-04T14:26:00.171Z,65.00
2023-02-04T14:29:26.884Z,80.01
2023-02-04T14:32:47.527Z,68.02
2023-02-04T14:36:09.319Z,79.79
2023-02-04T14:39:31.389Z,80.12
2023-02-04T14:42:52.276Z,80.19
2023-02-04T14:46:15.701Z,196.10
2023-02-04T14:49:38.217Z,173.12
2023-02-04T14:52:59.350Z,181.07
2023-02-04T14:56:20.921Z,459.91
2023-02-04T14:59:42.043Z,299.55
2023-02-04T15:03:05.509Z,170.22
2023-02-04T15:06:26.189Z,277.25
2023-02-04T15:09:48.447Z,139.80
2023-02-04T15:13:09.525Z,148.77
2023-02-04T15:16:30.416Z,125.27
2023-02-04T15:19:53.874Z,143.74
2023-02-04T15:23:18.290Z,130.19
2023-02-04T15:26:39.081Z,104.28
2023-02-04T15:29:59.871Z,250.15
2023-02-04T15:33:20.675Z,148.34
2023-02-04T15:36:44.081Z,153.51
2023-02-04T15:40:05.047Z,523.69
2023-02-04T15:43:28.536Z,215.71
2023-02-04T15:46:49.942Z,242.37
2023-02-04T15:50:15.123Z,290.73
2023-02-04T15:53:38.520Z,212.86
2023-02-04T15:56:59.426Z,225.24
2023-02-04T16:00:20.835Z,230.63
2023-02-04T16:03:43.697Z,238.04
2023-02-04T16:07:08.544Z,207.97
2023-02-04T16:10:32.804Z,268.57
2023-02-04T16:13:53.609Z,570.19
2023-02-04T16:17:14.289Z,382.60
2023-02-04T16:20:34.966Z,356.72
2023-02-04T16:23:56.032Z,241.27
2023-02-04T16:27:19.353Z,177.11
2023-02-04T16:30:42.729Z,219.68
2023-02-04T16:34:06.489Z,509.94
2023-02-04T16:37:27.240Z,125.73
2023-02-04T16:40:48.028Z,117.47
2023-02-04T16:44:11.686Z,126.20
2023-02-04T16:47:32.586Z,122.09
2023-02-04T16:50:56.047Z,144.80
2023-02-04T16:54:16.688Z,133.01
2023-02-04T16:57:37.505Z,135.48
2023-02-04T17:01:03.552Z,156.42
2023-02-04T17:04:32.464Z,225.83
2023-02-04T17:07:54.820Z,176.54
2023-02-04T17:11:28.041Z,306.41
2023-02-04T17:14:48.806Z,202.76
2023-02-04T17:18:12.783Z,117.36
2023-02-04T17:21:34.866Z,96.17
2023-02-04T17:24:55.624Z,125.58
2023-02-04T17:28:16.436Z,146.98
2023-02-04T17:31:40.829Z,164.57
2023-02-04T17:35:04.464Z,240.91
2023-02-04T17:38:27.276Z,206.04
2023-02-04T17:41:49.086Z,182.98
2023-02-04T17:45:13.219Z,223.72
2023-02-04T17:48:34.395Z,246.62
2023-02-04T17:51:57.902Z,217.43
2023-02-04T17:55:28.609Z,204.23
2023-02-04T17:58:49.781Z,409.52
2023-02-04T18:02:27.944Z,340.34
2023-02-04T18:05:52.052Z,236.23
2023-02-04T18:09:21.151Z,443.53
2023-02-04T18:12:41.933Z,197.06
2023-02-04T18:16:12.085Z,219.92
2023-02-04T18:19:40.611Z,232.53
2023-02-04T18:23:06.100Z,222.55
2023-02-04T18:26:29.497Z,214.16
2023-02-04T18:29:59.194Z,144.67
2023-02-04T18:33:26.818Z,164.54
2023-02-04T18:36:47.552Z,115.36
2023-02-04T18:40:27.960Z,126.49
2023-02-04T18:44:02.538Z,104.20
2023-02-04T18:47:36.060Z,104.53
2023-02-04T18:50:59.446Z,117.17
2023-02-04T18:54:39.065Z,108.51
2023-02-04T18:57:59.794Z,90.52
2023-02-04T19:01:27.868Z,80.65
2023-02-04T19:04:48.943Z,84.82
2023-02-04T19:08:29.483Z,97.20
2023-02-04T19:11:53.117Z,78.98
2023-02-04T19:15:41.148Z,68.36
2023-02-04T19:19:11.832Z,70.68
2023-02-04T19:22:46.452Z,77.85
2023-02-04T19:26:31.764Z,82.96
2023-02-04T19:29:52.612Z,78.19
2023-02-04T19:33:23.474Z,122.91
2023-02-04T19:36:52.738Z,149.05
2023-02-04T19:40:40.238Z,87.96
2023-02-04T19:44:38.904Z,96.82
2023-02-04T19:48:00.920Z,160.51
2023-02-04T19:51:32.549Z,166.35
2023-02-04T19:54:55.759Z,113.47
2023-02-04T19:58:24.565Z,142.74
2023-02-04T20:01:45.241Z,113.79
2023-02-04T20:05:23.132Z,124.11
2023-02-04T20:08:49.476Z,96.68
2023-02-04T20:12:20.520Z,96.02
2023-02-04T20:15:41.607Z,78.80
2023-02-04T20:19:05.899Z,82.71
2023-02-04T20:22:49.404Z,89.53
2023-02-04T20:26:13.475Z,95.04
2023-02-04T20:29:38.723Z,134.42
2023-02-04T20:33:08.777Z,89.00
2023-02-04T20:36:43.959Z,81.76
2023-02-04T20:40:21.968Z,108.92
2023-02-04T20:43:44.162Z,87.81
2023-02-04T20:47:20.538Z,94.65
2023-02-04T20:50:47.708Z,66.15
2023-02-04T20:54:20.362Z,88.34
2023-02-04T20:57:41.045Z,79.50
2023-02-04T21:01:02.075Z,76.16
2023-02-04T21:04:32.389Z,67.04
2023-02-04T21:07:53.709Z,70.64
2023-02-04T21:11:15.925Z,97.64
2023-02-04T21:14:39.900Z,98.44
2023-02-04T21:18:00.681Z,108.99
2023-02-04T21:21:25.088Z,152.70
2023-02-04T21:24:45.938Z,144.05
2023-02-04T21:28:08.479Z,158.75
2023-02-04T21:31:29.409Z,126.72
2023-02-04T21:34:50.161Z,122.53
2023-02-04T21:38:13.458Z,120.00
2023-02-04T21:41:34.447Z,83.93
2023-02-04T21:45:01.436Z,83.93
2023-02-04T21:48:22.337Z,93.73
2023-02-04T21:51:43.013Z,95.00
2023-02-04T21:55:07.736Z,72.84
2023-02-04T21:58:28.393Z,55.51
2023-02-04T22:01:49.171Z,56.94
2023-02-04T22:05:11.480Z,50.27
2023-02-04T22:08:32.172Z,63.25
2023-02-04T22:11:55.553Z,56.00
2023-02-04T22:15:16.977Z,58.84
2023-02-04T22:18:37.963Z,61.82
2023-02-04T22:21:58.788Z,57.50
2023-02-04T22:25:23.121Z,65.86
2023-02-04T22:28:49.324Z,62.33
2023-02-04T22:32:16.000Z,62.26
2023-02-04T22:35:37.968Z,68.35
2023-02-04T22:38:58.702Z,82.01
2023-02-04T22:42:19.475Z,85.78
2023-02-04T22:45:44.292Z,87.80
2023-02-04T22:49:06.156Z,104.16
2023-02-04T22:52:27.081Z,113.41
2023-02-04T22:55:47.864Z,131.63
2023-02-04T22:59:08.496Z,110.67
2023-02-04T23:02:31.964Z,113.73
2023-02-04T23:05:52.673Z,110.47
2023-02-04T23:09:13.465Z,91.93
2023-02-04T23:12:37.078Z,112.00
2023-02-04T23:15:57.969Z,120.81
2023-02-04T23:19:21.458Z,114.84
2023-02-04T23:22:43.072Z,110.43
2023-02-04T23:26:03.859Z,102.25
2023-02-04T23:29:24.642Z,109.81
2023-02-04T23:32:45.946Z,103.94
2023-02-04T23:36:11.088Z,93.98
2023-02-04T23:39:32.306Z,90.42
2023-02-04T23:42:53.063Z,99.35
2023-02-04T23:46:13.750Z,92.03
2023-02-04T23:49:34.511Z,96.23
2023-02-04T23:52:57.791Z,102.14
2023-02-04T23:56:18.554Z,102.98
2023-02-04T23:59:41.083Z,98.19
